createdAt,value
2022-10-20T00:08:10.257Z,100017.33
2022-10-20T00:17:45.137Z,100004.52
2022-10-20T00:27:18.780Z,99975.82
2022-10-20T00:36:52.363Z,99984.27
2022-10-20T00:46:26.756Z,99966.16
2022-10-20T00:55:58.795Z,99956.16
2022-10-20T01:05:34.430Z,99934.36
2022-10-20T01:15:06.624Z,99927.58
2022-10-20T01:24:41.802Z,99927.70
2022-10-20T01:34:14.132Z,99922.30
2022-10-20T01:43:48.650Z,99926.54
2022-10-20T01:53:20.319Z,99910.26
2022-10-20T02:02:53.875Z,99897.36
2022-10-20T02:12:28.649Z,99875.76
2022-10-20T02:22:02.729Z,99853.36
2022-10-20T02:31:35.302Z,99850.16
2022-10-20T02:41:09.273Z,99861.13
2022-10-20T02:50:43.155Z,99866.78
2022-10-20T03:00:18.733Z,99853.58
2022-10-20T03:09:50.668Z,99869.93
2022-10-20T03:19:24.688Z,99851.19
2022-10-20T03:28:59.934Z,99841.49
2022-10-20T03:38:31.936Z,99832.61
2022-10-20T03:48:06.012Z,99814.28
2022-10-20T03:57:39.666Z,99798.03
2022-10-20T04:07:15.126Z,99805.81
2022-10-20T04:16:47.686Z,99816.02
2022-10-20T04:26:23.098Z,99802.11
2022-10-20T04:35:56.782Z,99784.25
2022-10-20T04:45:30.430Z,99748.95
2022-10-20T04:55:02.738Z,99757.51
2022-10-20T05:04:36.695Z,99744.25
2022-10-20T05:14:11.667Z,99726.71
2022-10-20T05:23:43.937Z,99706.06
2022-10-20T05:33:17.678Z,99712.10
2022-10-20T05:42:52.989Z,99701.39
2022-10-20T05:52:25.076Z,99699.81
2022-10-20T06:01:58.216Z,99702.23
2022-10-20T06:11:39.181Z,99695.25
2022-10-20T06:21:07.981Z,99718.95
2022-10-20T06:30:40.709Z,99756.55
2022-10-20T06:40:14.955Z,99746.40
2022-10-20T06:49:49.234Z,99754.87
2022-10-20T06:59:23.705Z,99757.91
2022-10-20T07:09:00.257Z,99764.42
2022-10-20T07:18:32.720Z,99745.45
2022-10-20T07:28:07.425Z,99717.56
2022-10-20T07:37:43.224Z,99732.10
2022-10-20T07:47:17.165Z,99746.33
2022-10-20T07:56:49.903Z,99739.55
2022-10-20T08:06:24.369Z,99734.13
2022-10-20T08:15:58.962Z,99727.54
2022-10-20T08:25:33.526Z,99728.48
2022-10-20T08:26:37.669Z,99731.81
2022-10-20T08:36:09.518Z,99729.89
2022-10-20T08:45:44.092Z,99714.44
2022-10-20T08:46:46.625Z,99708.41
2022-10-20T08:47:50.681Z,99720.25
2022-10-20T08:57:24.090Z,99722.17
2022-10-20T08:58:28.067Z,99720.31
2022-10-20T08:59:32.083Z,99718.44
2022-10-20T09:00:34.436Z,99724.06
2022-10-20T09:01:36.986Z,99734.39
2022-10-20T09:02:41.028Z,99729.91
2022-10-20T09:03:45.046Z,99723.29
2022-10-20T09:04:47.444Z,99717.05
2022-10-20T09:05:51.610Z,99716.20
2022-10-20T09:06:55.625Z,99714.18
2022-10-20T09:07:57.943Z,99706.55
2022-10-20T09:17:32.114Z,99721.95
2022-10-20T09:18:36.156Z,99719.72
2022-10-20T09:19:39.530Z,99725.03
2022-10-20T09:20:41.865Z,99731.20
2022-10-20T09:21:45.927Z,99729.46
2022-10-20T09:22:48.250Z,99729.38
2022-10-20T09:24:54.848Z,99720.11
2022-10-20T09:25:58.864Z,99724.97
2022-10-20T09:27:01.185Z,99720.84
2022-10-20T09:28:03.630Z,99724.32
2022-10-20T09:29:12.805Z,99726.27
2022-10-20T09:30:08.559Z,99731.00
2022-10-20T09:31:10.978Z,99733.96
2022-10-20T09:32:41.099Z,99729.28
2022-10-20T09:33:17.530Z,99724.88
2022-10-20T09:34:19.829Z,99729.27
2022-10-20T09:35:23.912Z,99725.85
2022-10-20T09:36:26.302Z,99730.59
2022-10-20T09:37:30.346Z,99724.30
2022-10-20T09:38:34.257Z,99723.59
2022-10-20T09:39:39.548Z,99724.52
2022-10-20T09:40:42.223Z,99726.64
2022-10-20T09:41:44.663Z,99725.73
2022-10-20T09:42:47.036Z,99723.50
2022-10-20T09:43:52.165Z,99723.66
2022-10-20T09:44:55.026Z,99717.61
2022-10-20T09:46:01.108Z,99709.46
2022-10-20T09:47:03.305Z,99706.06
2022-10-20T09:48:05.742Z,99702.73
2022-10-20T09:49:08.139Z,99709.27
2022-10-20T09:50:12.233Z,99708.18
2022-10-20T09:51:16.202Z,99708.02
2022-10-20T09:52:20.176Z,99712.59
2022-10-20T09:53:24.136Z,99712.91
2022-10-20T09:54:26.456Z,99716.75
2022-10-20T09:55:28.868Z,99718.45
2022-10-20T09:56:31.258Z,99721.03
2022-10-20T09:57:33.757Z,99719.77
2022-10-20T09:58:36.198Z,99715.73
2022-10-20T09:59:40.329Z,99719.32
2022-10-20T10:00:42.680Z,99720.22
2022-10-20T10:01:45.100Z,99719.27
2022-10-20T10:11:17.534Z,99704.61
2022-10-20T10:12:20.057Z,99705.67
2022-10-20T10:13:24.870Z,99707.55
2022-10-20T10:14:26.533Z,99710.05
2022-10-20T10:15:30.586Z,99712.36
2022-10-20T10:16:32.900Z,99707.73
2022-10-20T10:17:35.714Z,99707.82
2022-10-20T10:18:39.461Z,99703.63
2022-10-20T10:19:42.887Z,99704.55
2022-10-20T10:20:45.213Z,99705.22
2022-10-20T10:21:49.326Z,99703.73
2022-10-20T10:22:53.289Z,99705.84
2022-10-20T10:23:55.610Z,99700.30
2022-10-20T10:24:59.640Z,99694.47
2022-10-20T10:26:03.587Z,99693.63
2022-10-20T10:27:06.955Z,99686.78
2022-10-20T10:28:09.360Z,99686.86
2022-10-20T10:29:11.730Z,99685.09
2022-10-20T10:30:15.878Z,99684.86
2022-10-20T10:31:18.214Z,99684.78
2022-10-20T10:32:22.221Z,99686.23
2022-10-20T10:33:26.179Z,99683.47
2022-10-20T10:34:28.517Z,99682.59
2022-10-20T10:35:31.016Z,99675.36
2022-10-20T10:36:33.440Z,99672.24
2022-10-20T10:37:35.950Z,99667.02
2022-10-20T10:38:39.983Z,99664.53
2022-10-20T10:39:42.282Z,99663.02
2022-10-20T10:40:44.755Z,99658.49
2022-10-20T10:41:48.869Z,99659.12
2022-10-20T10:42:52.210Z,99665.77
2022-10-20T10:43:56.288Z,99663.35
2022-10-20T10:44:58.765Z,99662.05
2022-10-20T10:46:01.248Z,99655.17
2022-10-20T10:47:03.640Z,99650.72
2022-10-20T10:48:06.122Z,99654.55
2022-10-20T10:49:08.634Z,99646.45
2022-10-20T10:50:11.066Z,99646.41
2022-10-20T10:51:15.156Z,99639.58
2022-10-20T10:52:17.552Z,99636.92
2022-10-20T10:53:21.586Z,99628.00
2022-10-20T10:54:25.577Z,99630.82
2022-10-20T10:55:47.610Z,99627.13
2022-10-20T10:56:30.400Z,99621.31
2022-10-20T10:57:32.880Z,99625.02
2022-10-20T10:58:35.390Z,99627.86
2022-10-20T10:59:37.860Z,99630.31
2022-10-20T11:00:40.402Z,99635.81
2022-10-20T11:01:42.976Z,99644.84
2022-10-20T11:02:45.397Z,99650.94
2022-10-20T11:03:49.441Z,99644.67
2022-10-20T11:04:52.862Z,99651.38
2022-10-20T11:05:57.038Z,99653.89
2022-10-20T11:07:00.962Z,99650.56
2022-10-20T11:08:03.310Z,99647.74
2022-10-20T11:09:07.480Z,99650.41
2022-10-20T11:10:09.715Z,99641.36
2022-10-20T11:11:13.783Z,99647.23
2022-10-20T11:12:17.707Z,99647.64
2022-10-20T11:13:22.999Z,99646.77
2022-10-20T11:14:24.119Z,99643.31
2022-10-20T11:15:26.548Z,99640.09
2022-10-20T11:16:29.050Z,99646.94
2022-10-20T11:17:31.449Z,99651.38
2022-10-20T11:18:33.942Z,99648.66
2022-10-20T11:19:36.474Z,99651.95
2022-10-20T11:20:38.947Z,99650.28
2022-10-20T11:21:43.051Z,99645.14
2022-10-20T11:22:45.360Z,99653.18
2022-10-20T11:23:49.462Z,99650.94
2022-10-20T11:24:51.832Z,99649.32
2022-10-20T11:25:55.904Z,99649.58
2022-10-20T11:26:59.180Z,99647.75
2022-10-20T11:28:03.139Z,99655.76
2022-10-20T11:29:07.070Z,99653.17
2022-10-20T11:30:12.015Z,99653.75
2022-10-20T11:31:15.864Z,99658.47
2022-10-20T11:32:18.142Z,99663.08
2022-10-20T11:33:20.644Z,99659.48
2022-10-20T11:34:23.029Z,99657.57
2022-10-20T11:35:25.553Z,99653.13
2022-10-20T11:36:27.987Z,99652.42
2022-10-20T11:37:32.076Z,99652.84
2022-10-20T11:38:34.431Z,99648.65
2022-10-20T11:39:38.641Z,99650.36
2022-10-20T11:40:41.009Z,99654.89
2022-10-20T11:41:43.446Z,99658.77
2022-10-20T11:42:45.894Z,99659.80
2022-10-20T11:43:48.397Z,99658.86
2022-10-20T11:44:50.898Z,99658.91
2022-10-20T11:45:54.950Z,99659.27
2022-10-20T11:46:58.908Z,99662.62
2022-10-20T11:48:01.224Z,99662.09
2022-10-20T11:49:05.279Z,99663.94
2022-10-20T11:50:09.245Z,99667.34
2022-10-20T11:51:13.216Z,99667.59
2022-10-20T11:52:15.578Z,99669.27
2022-10-20T11:53:18.030Z,99670.53
2022-10-20T11:54:22.068Z,99668.56
2022-10-20T11:55:27.031Z,99668.28
2022-10-20T12:04:57.806Z,99653.23
2022-10-20T12:06:00.237Z,99653.16
2022-10-20T12:07:04.340Z,99649.14
2022-10-20T12:08:25.008Z,99651.20
2022-10-20T12:09:12.278Z,99648.16
2022-10-20T12:10:14.561Z,99647.06
2022-10-20T12:11:18.572Z,99639.38
2022-10-20T12:12:24.731Z,99630.34
2022-10-20T12:13:28.490Z,99625.02
2022-10-20T12:14:30.754Z,99627.69
2022-10-20T12:15:33.247Z,99631.73
2022-10-20T12:16:37.299Z,99638.53
2022-10-20T12:17:41.229Z,99641.02
2022-10-20T12:18:45.108Z,99640.03
2022-10-20T12:19:47.452Z,99637.53
2022-10-20T12:20:49.953Z,99637.55
2022-10-20T12:30:21.930Z,99644.54
2022-10-20T12:31:24.440Z,99642.41
2022-10-20T12:32:26.978Z,99640.48
2022-10-20T12:33:31.049Z,99639.06
2022-10-20T12:34:33.352Z,99634.96
2022-10-20T12:35:35.863Z,99639.80
2022-10-20T12:36:38.338Z,99644.58
2022-10-20T12:37:43.639Z,99643.30
2022-10-20T12:38:46.394Z,99642.42
2022-10-20T12:39:48.719Z,99637.95
2022-10-20T12:40:51.157Z,99640.66
2022-10-20T12:41:55.304Z,99639.11
2022-10-20T12:43:01.465Z,99640.23
2022-10-20T12:44:05.252Z,99641.23
2022-10-20T12:45:07.682Z,99639.16
2022-10-20T12:46:10.149Z,99635.48
2022-10-20T12:47:15.530Z,99638.92
2022-10-20T12:48:17.794Z,99637.80
2022-10-20T12:49:21.233Z,99631.73
2022-10-20T12:50:25.196Z,99636.66
2022-10-20T12:51:29.094Z,99629.95
2022-10-20T12:52:31.445Z,99626.16
2022-10-20T12:53:35.496Z,99619.16
2022-10-20T12:54:37.911Z,99610.27
2022-10-20T12:55:42.288Z,99604.11
2022-10-20T12:56:45.911Z,99599.53
2022-10-20T12:57:49.893Z,99599.91
2022-10-20T12:58:53.819Z,99595.22
2022-10-20T12:59:57.808Z,99593.73
2022-10-20T13:01:00.254Z,99588.64
2022-10-20T13:02:02.642Z,99585.80
2022-10-20T13:03:06.694Z,99588.14
2022-10-20T13:04:09.025Z,99580.86
2022-10-20T13:05:13.479Z,99588.88
2022-10-20T13:06:15.778Z,99583.38
2022-10-20T13:07:18.315Z,99584.88
2022-10-20T13:08:20.756Z,99584.56
2022-10-20T13:09:23.233Z,99584.39
2022-10-20T13:10:25.734Z,99588.03
2022-10-20T13:11:29.855Z,99587.81
2022-10-20T13:12:32.183Z,99581.84
2022-10-20T13:13:34.710Z,99581.24
2022-10-20T13:14:37.113Z,99576.83
2022-10-20T13:15:41.167Z,99571.77
2022-10-20T13:16:43.539Z,99571.98
2022-10-20T13:17:45.980Z,99571.30
2022-10-20T13:18:50.070Z,99563.49
2022-10-20T13:19:52.463Z,99560.64
2022-10-20T13:20:54.937Z,99568.02
2022-10-20T13:21:57.376Z,99572.77
2022-10-20T13:24:04.091Z,99570.13
2022-10-20T13:25:08.023Z,99566.00
2022-10-20T13:26:11.962Z,99563.31
2022-10-20T13:27:15.928Z,99561.87
2022-10-20T13:28:18.357Z,99568.91
2022-10-20T13:29:22.298Z,99570.88
2022-10-20T13:30:26.235Z,99568.37
2022-10-20T13:31:28.635Z,99568.89
2022-10-20T13:32:32.731Z,99564.67
2022-10-20T13:33:58.681Z,99568.13
2022-10-20T13:34:40.049Z,99570.48
2022-10-20T13:35:42.341Z,99574.41
2022-10-20T13:36:44.765Z,99572.58
2022-10-20T13:37:47.242Z,99570.14
2022-10-20T13:38:49.677Z,99565.93
2022-10-20T13:39:52.171Z,99564.81
2022-10-20T13:40:54.669Z,99563.03
2022-10-20T13:41:58.691Z,99565.95
2022-10-20T13:43:02.566Z,99579.76
2022-10-20T13:44:08.840Z,99582.86
2022-10-20T13:45:08.840Z,99583.78
2022-10-20T13:46:12.903Z,99585.25
2022-10-20T13:47:15.262Z,99582.05
2022-10-20T13:48:17.745Z,99579.30
2022-10-20T13:49:20.171Z,99580.02
2022-10-20T13:50:22.636Z,99575.03
2022-10-20T13:51:26.670Z,99577.36
2022-10-20T13:52:30.755Z,99584.03
2022-10-20T13:53:33.075Z,99580.02
2022-10-20T13:54:35.543Z,99579.98
2022-10-20T13:55:38.011Z,99583.42
2022-10-20T13:56:42.144Z,99582.09
2022-10-20T13:57:46.081Z,99580.37
2022-10-20T13:58:50.119Z,99582.91
2022-10-20T13:59:53.996Z,99587.78
2022-10-20T14:00:56.404Z,99584.32
2022-10-20T14:02:00.314Z,99581.50
2022-10-20T14:03:02.670Z,99582.02
2022-10-20T14:04:06.755Z,99584.40
2022-10-20T14:05:10.713Z,99581.45
2022-10-20T14:06:13.016Z,99573.20
2022-10-20T14:07:17.057Z,99569.74
2022-10-20T14:08:23.250Z,99568.03
2022-10-20T14:09:21.784Z,99572.52
2022-10-20T14:10:24.244Z,99581.23
2022-10-20T14:11:28.362Z,99579.55
2022-10-20T14:20:58.939Z,99601.81
2022-10-20T14:22:01.420Z,99603.55
2022-10-20T14:23:05.910Z,99613.44
2022-10-20T14:24:08.280Z,99613.30
2022-10-20T14:25:12.333Z,99625.41
2022-10-20T14:26:16.237Z,99623.63
2022-10-20T14:27:18.543Z,99623.80
2022-10-20T14:28:21.045Z,99627.88
2022-10-20T14:37:53.726Z,99604.48
2022-10-20T14:38:56.292Z,99605.53
2022-10-20T14:40:00.424Z,99607.91
2022-10-20T14:41:04.360Z,99598.48
2022-10-20T14:42:08.274Z,99591.86
2022-10-20T14:43:12.183Z,99586.55
2022-10-20T14:44:22.552Z,99589.31
2022-10-20T14:45:18.640Z,99582.91
2022-10-20T14:46:20.941Z,99581.64
2022-10-20T14:47:24.989Z,99577.19
2022-10-20T14:48:28.928Z,99566.03
2022-10-20T14:58:00.973Z,99568.53
2022-10-20T14:59:04.906Z,99569.08
2022-10-20T15:00:07.243Z,99568.73
2022-10-20T15:01:11.298Z,99564.95
2022-10-20T15:02:15.269Z,99565.97
2022-10-20T15:03:17.661Z,99567.55
2022-10-20T15:04:20.080Z,99565.94
2022-10-20T15:05:22.517Z,99566.91
2022-10-20T15:06:26.556Z,99566.83
2022-10-20T15:07:28.911Z,99569.30
2022-10-20T15:08:31.428Z,99567.89
2022-10-20T15:09:33.804Z,99565.80
2022-10-20T15:10:36.254Z,99560.84
2022-10-20T15:11:40.358Z,99557.47
2022-10-20T15:12:44.308Z,99551.22
2022-10-20T15:13:46.650Z,99545.50
2022-10-20T15:14:49.081Z,99545.42
2022-10-20T15:15:53.105Z,99545.97
2022-10-20T15:16:55.449Z,99547.38
2022-10-20T15:26:29.489Z,99557.25
2022-10-20T15:27:33.474Z,99555.00
2022-10-20T15:28:37.415Z,99553.08
2022-10-20T15:29:39.753Z,99556.88
2022-10-20T15:30:42.214Z,99557.23
2022-10-20T15:31:46.323Z,99556.20
2022-10-20T15:32:48.627Z,99555.63
2022-10-20T15:33:52.749Z,99550.72
2022-10-20T15:34:55.060Z,99546.54
2022-10-20T15:35:57.527Z,99551.05
2022-10-20T15:37:00.002Z,99547.05
2022-10-20T15:38:04.042Z,99535.59
2022-10-20T15:39:06.454Z,99532.07
2022-10-20T15:40:08.886Z,99528.44
2022-10-20T15:41:12.947Z,99535.44
2022-10-20T15:42:15.271Z,99542.75
2022-10-20T15:43:17.662Z,99543.28
2022-10-20T15:44:20.106Z,99548.60
2022-10-20T15:45:22.597Z,99550.46
2022-10-20T15:46:26.762Z,99545.35
2022-10-20T15:47:29.088Z,99534.06
2022-10-20T15:48:33.209Z,99527.66
2022-10-20T15:49:35.621Z,99522.81
2022-10-20T15:50:39.645Z,99520.15
2022-10-20T15:51:41.952Z,99512.02
2022-10-20T16:01:14.061Z,99518.08
2022-10-20T16:10:48.055Z,99525.93
2022-10-20T16:11:52.201Z,99512.70
2022-10-20T16:21:26.023Z,99504.41
2022-10-20T16:30:59.359Z,99495.66
2022-10-20T16:40:34.358Z,99496.16
2022-10-20T16:50:07.973Z,99499.42
2022-10-20T16:59:41.101Z,99501.91
2022-10-20T17:09:17.240Z,99512.34
2022-10-20T17:10:21.179Z,99507.84
2022-10-20T17:19:54.648Z,99481.81
2022-10-20T17:29:28.891Z,99489.78
2022-10-20T17:39:01.240Z,99494.66
2022-10-20T17:48:36.586Z,99472.06
2022-10-20T17:58:09.325Z,99370.06
2022-10-20T18:07:43.759Z,99505.80
2022-10-20T18:17:18.214Z,99503.02
2022-10-20T18:26:50.687Z,99496.89
2022-10-20T18:27:53.155Z,99497.14
2022-10-20T18:37:26.688Z,99473.88
2022-10-20T18:47:02.523Z,99467.00
2022-10-20T18:56:34.958Z,99464.36
2022-10-20T19:06:09.395Z,99434.35
2022-10-20T19:15:45.467Z,99431.80
2022-10-20T19:25:17.745Z,99414.16
2022-10-20T19:34:53.473Z,99396.78
2022-10-20T19:44:27.682Z,99373.19
2022-10-20T19:54:02.106Z,99386.20
2022-10-20T20:03:34.720Z,99389.66
2022-10-20T20:13:10.065Z,99384.20
2022-10-20T20:22:44.930Z,99391.08
2022-10-20T20:32:17.523Z,99386.53
2022-10-20T20:33:20.052Z,99387.24
2022-10-20T20:42:53.745Z,99392.30
2022-10-20T20:52:29.910Z,99395.64
2022-10-20T21:02:04.257Z,99380.18
2022-10-20T21:11:36.955Z,99372.67
2022-10-20T21:30:45.526Z,99319.54
2022-10-20T21:40:20.019Z,99342.77
2022-10-20T21:49:56.159Z,99340.17
2022-10-20T21:59:30.297Z,99352.75
2022-10-20T22:09:03.041Z,99348.21
2022-10-20T22:10:05.476Z,99350.45
2022-10-20T22:19:40.357Z,99334.36
2022-10-20T22:29:12.899Z,99328.50
2022-10-20T22:38:47.583Z,99346.13
2022-10-20T22:48:22.197Z,99336.88
2022-10-20T22:57:56.449Z,99339.70
2022-10-20T23:07:30.911Z,99361.52
2022-10-20T23:17:05.706Z,99364.23
2022-10-20T23:26:41.914Z,99380.62
2022-10-20T23:36:16.066Z,99351.80
2022-10-20T23:45:50.073Z,99262.63
2022-10-20T23:55:23.685Z,99245.20
